sensor_id;sensor_type;location;lat;lon;timestamp;temperature;humidity
19941;DHT22;10132;50.864;5.176;2022-11-27T00:00:20;6.40;99.90
19941;DHT22;10132;50.864;5.176;2022-11-27T00:02:24;6.50;99.90
19941;DHT22;10132;50.864;5.176;2022-11-27T00:04:26;6.50;99.90
19941;DHT22;10132;50.864;5.176;2022-11-27T00:06:29;6.60;99.90
19941;DHT22;10132;50.864;5.176;2022-11-27T00:08:31;6.60;99.90
19941;DHT22;10132;50.864;5.176;2022-11-27T00:10:33;6.60;99.90
19941;DHT22;10132;50.864;5.176;2022-11-27T00:12:36;6.60;99.90
19941;DHT22;10132;50.864;5.176;2022-11-27T00:14:39;6.60;99.90
19941;DHT22;10132;50.864;5.176;2022-11-27T00:16:42;6.60;99.90
19941;DHT22;10132;50.864;5.176;2022-11-27T00:18:47;6.60;99.90
19941;DHT22;10132;50.864;5.176;2022-11-27T00:20:49;6.60;99.90
19941;DHT22;10132;50.864;5.176;2022-11-27T00:22:51;6.50;99.90
19941;DHT22;10132;50.864;5.176;2022-11-27T00:24:53;6.60;99.90
19941;DHT22;10132;50.864;5.176;2022-11-27T00:26:55;6.60;99.90
19941;DHT22;10132;50.864;5.176;2022-11-27T00:28:58;6.60;99.90
19941;DHT22;10132;50.864;5.176;2022-11-27T00:31:03;6.60;99.90
19941;DHT22;10132;50.864;5.176;2022-11-27T00:33:06;6.50;99.90
19941;DHT22;10132;50.864;5.176;2022-11-27T00:35:10;6.50;99.90
19941;DHT22;10132;50.864;5.176;2022-11-27T00:37:13;6.50;99.90
19941;DHT22;10132;50.864;5.176;2022-11-27T00:39:16;6.50;99.90
19941;DHT22;10132;50.864;5.176;2022-11-27T00:41:21;6.50;99.90
19941;DHT22;10132;50.864;5.176;2022-11-27T00:43:23;6.50;99.90
19941;DHT22;10132;50.864;5.176;2022-11-27T00:45:25;6.60;99.90
19941;DHT22;10132;50.864;5.176;2022-11-27T00:47:27;6.60;99.90
19941;DHT22;10132;50.864;5.176;2022-11-27T00:49:29;6.60;99.90
19941;DHT22;10132;50.864;5.176;2022-11-27T00:51:33;6.60;99.90
19941;DHT22;10132;50.864;5.176;2022-11-27T00:53:36;6.70;99.90
19941;DHT22;10132;50.864;5.176;2022-11-27T00:55:38;6.70;99.90
19941;DHT22;10132;50.864;5.176;2022-11-27T00:57:40;6.80;99.90
19941;DHT22;10132;50.864;5.176;2022-11-27T00:59:42;6.80;99.90
19941;DHT22;10132;50.864;5.176;2022-11-27T01:01:45;6.90;99.90
19941;DHT22;10132;50.864;5.176;2022-11-27T01:03:48;6.90;99.90
19941;DHT22;10132;50.864;5.176;2022-11-27T01:05:50;6.80;99.90
19941;DHT22;10132;50.864;5.176;2022-11-27T01:07:54;6.80;99.90
19941;DHT22;10132;50.864;5.176;2022-11-27T01:09:56;6.80;99.90
19941;DHT22;10132;50.864;5.176;2022-11-27T01:11:58;6.80;99.90
19941;DHT22;10132;50.864;5.176;2022-11-27T01:14:02;6.80;99.90
19941;DHT22;10132;50.864;5.176;2022-11-27T01:16:07;6.80;99.90
19941;DHT22;10132;50.864;5.176;2022-11-27T01:18:09;6.80;99.90
19941;DHT22;10132;50.864;5.176;2022-11-27T01:20:11;6.90;99.90
19941;DHT22;10132;50.864;5.176;2022-11-27T01:22:15;6.90;99.90
19941;DHT22;10132;50.864;5.176;2022-11-27T01:24:18;6.90;99.90
19941;DHT22;10132;50.864;5.176;2022-11-27T01:26:20;6.80;99.90
19941;DHT22;10132;50.864;5.176;2022-11-27T01:28:23;6.90;99.90
19941;DHT22;10132;50.864;5.176;2022-11-27T01:30:25;6.90;99.90
19941;DHT22;10132;50.864;5.176;2022-11-27T01:32:28;6.70;99.90
19941;DHT22;10132;50.864;5.176;2022-11-27T01:34:30;6.80;99.90
19941;DHT22;10132;50.864;5.176;2022-11-27T01:36:33;6.80;99.90
19941;DHT22;10132;50.864;5.176;2022-11-27T01:38:36;6.90;99.90
19941;DHT22;10132;50.864;5.176;2022-11-27T01:40:39;7.00;99.90
19941;DHT22;10132;50.864;5.176;2022-11-27T01:42:41;7.00;99.90
19941;DHT22;10132;50.864;5.176;2022-11-27T01:44:50;7.00;99.90
19941;DHT22;10132;50.864;5.176;2022-11-27T01:46:55;7.00;99.90
19941;DHT22;10132;50.864;5.176;2022-11-27T01:49:02;7.00;99.90
19941;DHT22;10132;50.864;5.176;2022-11-27T01:51:06;7.00;99.90
19941;DHT22;10132;50.864;5.176;2022-11-27T01:53:14;6.90;99.90
19941;DHT22;10132;50.864;5.176;2022-11-27T01:55:24;7.00;99.90
19941;DHT22;10132;50.864;5.176;2022-11-27T01:57:31;7.00;99.90
19941;DHT22;10132;50.864;5.176;2022-11-27T01:59:35;6.90;99.90
19941;DHT22;10132;50.864;5.176;2022-11-27T02:01:37;6.80;99.90
19941;DHT22;10132;50.864;5.176;2022-11-27T02:03:42;6.70;99.90
19941;DHT22;10132;50.864;5.176;2022-11-27T02:05:45;6.70;99.90
19941;DHT22;10132;50.864;5.176;2022-11-27T02:07:47;6.80;99.90
19941;DHT22;10132;50.864;5.176;2022-11-27T02:09:50;6.90;99.90
19941;DHT22;10132;50.864;5.176;2022-11-27T02:11:55;6.90;99.90
19941;DHT22;10132;50.864;5.176;2022-11-27T02:14:05;7.00;99.90
19941;DHT22;10132;50.864;5.176;2022-11-27T02:16:17;6.90;99.90
19941;DHT22;10132;50.864;5.176;2022-11-27T02:18:26;6.90;99.90
19941;DHT22;10132;50.864;5.176;2022-11-27T02:20:39;7.00;99.90
19941;DHT22;10132;50.864;5.176;2022-11-27T02:23:20;7.10;99.90
19941;DHT22;10132;50.864;5.176;2022-11-27T02:25:31;7.10;99.90
19941;DHT22;10132;50.864;5.176;2022-11-27T02:27:57;7.10;99.90
19941;DHT22;10132;50.864;5.176;2022-11-27T02:30:04;7.10;99.90
19941;DHT22;10132;50.864;5.176;2022-11-27T02:32:10;7.10;99.90
19941;DHT22;10132;50.864;5.176;2022-11-27T02:34:21;7.00;99.90
19941;DHT22;10132;50.864;5.176;2022-11-27T02:36:29;7.00;99.90
19941;DHT22;10132;50.864;5.176;2022-11-27T02:38:35;7.00;99.90
19941;DHT22;10132;50.864;5.176;2022-11-27T02:40:41;7.00;99.90
19941;DHT22;10132;50.864;5.176;2022-11-27T02:42:49;7.00;99.90
19941;DHT22;10132;50.864;5.176;2022-11-27T02:44:57;7.00;99.90
19941;DHT22;10132;50.864;5.176;2022-11-27T02:47:04;7.00;99.90
19941;DHT22;10132;50.864;5.176;2022-11-27T02:49:10;7.10;99.90
19941;DHT22;10132;50.864;5.176;2022-11-27T02:51:15;7.00;99.90
19941;DHT22;10132;50.864;5.176;2022-11-27T02:53:22;7.00;99.90
19941;DHT22;10132;50.864;5.176;2022-11-27T02:55:27;7.00;99.90
19941;DHT22;10132;50.864;5.176;2022-11-27T02:57:33;7.00;99.90
19941;DHT22;10132;50.864;5.176;2022-11-27T02:59:36;7.10;99.90
19941;DHT22;10132;50.864;5.176;2022-11-27T03:01:41;7.10;99.90
19941;DHT22;10132;50.864;5.176;2022-11-27T03:03:47;7.20;99.90
19941;DHT22;10132;50.864;5.176;2022-11-27T03:05:54;7.10;99.90
19941;DHT22;10132;50.864;5.176;2022-11-27T03:08:01;7.10;99.90
19941;DHT22;10132;50.864;5.176;2022-11-27T03:10:11;7.20;99.90
19941;DHT22;10132;50.864;5.176;2022-11-27T03:12:15;7.20;99.90
19941;DHT22;10132;50.864;5.176;2022-11-27T03:14:19;7.20;99.90
19941;DHT22;10132;50.864;5.176;2022-11-27T03:16:29;7.20;99.90
19941;DHT22;10132;50.864;5.176;2022-11-27T03:18:40;7.20;99.90
19941;DHT22;10132;50.864;5.176;2022-11-27T03:20:46;7.20;99.90
19941;DHT22;10132;50.864;5.176;2022-11-27T03:22:50;7.20;99.90
19941;DHT22;10132;50.864;5.176;2022-11-27T03:24:53;7.20;99.90
19941;DHT22;10132;50.864;5.176;2022-11-27T03:26:56;7.20;99.90
19941;DHT22;10132;50.864;5.176;2022-11-27T03:29:02;7.30;99.90
19941;DHT22;10132;50.864;5.176;2022-11-27T03:31:05;7.30;99.90
19941;DHT22;10132;50.864;5.176;2022-11-27T03:33:07;7.30;99.90
19941;DHT22;10132;50.864;5.176;2022-11-27T03:35:11;7.30;99.90
19941;DHT22;10132;50.864;5.176;2022-11-27T03:37:17;7.30;99.90
19941;DHT22;10132;50.864;5.176;2022-11-27T03:39:21;7.30;99.90
19941;DHT22;10132;50.864;5.176;2022-11-27T03:41:31;7.40;99.90
19941;DHT22;10132;50.864;5.176;2022-11-27T03:43:40;7.40;99.90
19941;DHT22;10132;50.864;5.176;2022-11-27T03:45:51;7.40;99.90
19941;DHT22;10132;50.864;5.176;2022-11-27T03:48:05;7.40;99.90
19941;DHT22;10132;50.864;5.176;2022-11-27T03:50:19;7.40;99.90
19941;DHT22;10132;50.864;5.176;2022-11-27T03:52:30;7.50;99.90
19941;DHT22;10132;50.864;5.176;2022-11-27T03:54:40;7.50;99.90
19941;DHT22;10132;50.864;5.176;2022-11-27T03:56:50;7.40;99.90
19941;DHT22;10132;50.864;5.176;2022-11-27T03:59:00;7.40;99.90
19941;DHT22;10132;50.864;5.176;2022-11-27T04:01:09;7.40;99.90
19941;DHT22;10132;50.864;5.176;2022-11-27T04:03:12;7.50;99.90
19941;DHT22;10132;50.864;5.176;2022-11-27T04:05:14;7.50;99.90
19941;DHT22;10132;50.864;5.176;2022-11-27T04:07:18;7.50;99.90
19941;DHT22;10132;50.864;5.176;2022-11-27T04:09:22;7.50;99.90
19941;DHT22;10132;50.864;5.176;2022-11-27T04:11:25;7.50;99.90
19941;DHT22;10132;50.864;5.176;2022-11-27T04:13:28;7.50;99.90
19941;DHT22;10132;50.864;5.176;2022-11-27T04:15:30;7.60;99.90
19941;DHT22;10132;50.864;5.176;2022-11-27T04:17:33;7.50;99.90
19941;DHT22;10132;50.864;5.176;2022-11-27T04:19:37;7.50;99.90
19941;DHT22;10132;50.864;5.176;2022-11-27T04:21:39;7.50;99.90
19941;DHT22;10132;50.864;5.176;2022-11-27T04:23:41;7.50;99.90
19941;DHT22;10132;50.864;5.176;2022-11-27T04:25:44;7.40;99.90
19941;DHT22;10132;50.864;5.176;2022-11-27T04:27:46;7.40;99.90
19941;DHT22;10132;50.864;5.176;2022-11-27T04:29:49;7.50;99.90
19941;DHT22;10132;50.864;5.176;2022-11-27T04:31:51;7.60;99.90
19941;DHT22;10132;50.864;5.176;2022-11-27T04:33:53;7.60;99.90
19941;DHT22;10132;50.864;5.176;2022-11-27T04:35:55;7.60;99.90
19941;DHT22;10132;50.864;5.176;2022-11-27T04:37:58;7.70;99.90
19941;DHT22;10132;50.864;5.176;2022-11-27T04:40:00;7.70;99.90
19941;DHT22;10132;50.864;5.176;2022-11-27T04:42:03;7.80;99.90
19941;DHT22;10132;50.864;5.176;2022-11-27T04:44:06;7.70;99.90
19941;DHT22;10132;50.864;5.176;2022-11-27T04:46:08;7.70;99.90
19941;DHT22;10132;50.864;5.176;2022-11-27T04:48:10;7.80;99.90
19941;DHT22;10132;50.864;5.176;2022-11-27T04:50:12;7.80;99.90
19941;DHT22;10132;50.864;5.176;2022-11-27T04:52:14;7.80;99.90
19941;DHT22;10132;50.864;5.176;2022-11-27T04:54:16;7.80;99.90
19941;DHT22;10132;50.864;5.176;2022-11-27T04:56:19;7.80;99.90
19941;DHT22;10132;50.864;5.176;2022-11-27T04:58:23;7.80;99.90
19941;DHT22;10132;50.864;5.176;2022-11-27T05:00:25;7.80;99.90
19941;DHT22;10132;50.864;5.176;2022-11-27T05:02:28;7.70;99.90
19941;DHT22;10132;50.864;5.176;2022-11-27T05:04:31;7.70;99.90
19941;DHT22;10132;50.864;5.176;2022-11-27T05:06:33;7.70;99.90
19941;DHT22;10132;50.864;5.176;2022-11-27T05:08:35;7.60;99.90
19941;DHT22;10132;50.864;5.176;2022-11-27T05:10:38;7.70;99.90
19941;DHT22;10132;50.864;5.176;2022-11-27T05:12:42;7.70;99.90
19941;DHT22;10132;50.864;5.176;2022-11-27T05:14:45;7.70;99.90
19941;DHT22;10132;50.864;5.176;2022-11-27T05:16:50;7.70;99.90
19941;DHT22;10132;50.864;5.176;2022-11-27T05:18:52;7.70;99.90
19941;DHT22;10132;50.864;5.176;2022-11-27T05:20:58;7.80;99.90
19941;DHT22;10132;50.864;5.176;2022-11-27T05:23:00;7.70;99.90
19941;DHT22;10132;50.864;5.176;2022-11-27T05:25:02;7.80;99.90
19941;DHT22;10132;50.864;5.176;2022-11-27T05:27:05;7.90;99.90
19941;DHT22;10132;50.864;5.176;2022-11-27T05:29:08;7.90;99.90
19941;DHT22;10132;50.864;5.176;2022-11-27T05:31:12;8.00;99.90
19941;DHT22;10132;50.864;5.176;2022-11-27T05:33:16;8.00;99.90
19941;DHT22;10132;50.864;5.176;2022-11-27T05:35:18;8.00;99.90
19941;DHT22;10132;50.864;5.176;2022-11-27T05:37:20;8.00;99.90
19941;DHT22;10132;50.864;5.176;2022-11-27T05:39:23;8.10;99.90
19941;DHT22;10132;50.864;5.176;2022-11-27T05:41:25;8.00;99.90
19941;DHT22;10132;50.864;5.176;2022-11-27T05:43:27;8.00;99.90
19941;DHT22;10132;50.864;5.176;2022-11-27T05:45:29;7.90;99.90
19941;DHT22;10132;50.864;5.176;2022-11-27T05:47:32;8.00;99.90
19941;DHT22;10132;50.864;5.176;2022-11-27T05:49:34;7.90;99.90
19941;DHT22;10132;50.864;5.176;2022-11-27T05:51:38;8.00;99.90
19941;DHT22;10132;50.864;5.176;2022-11-27T05:53:41;7.90;99.90
19941;DHT22;10132;50.864;5.176;2022-11-27T05:55:43;8.00;99.90
19941;DHT22;10132;50.864;5.176;2022-11-27T05:57:45;8.00;99.90
19941;DHT22;10132;50.864;5.176;2022-11-27T05:59:49;8.00;99.90
19941;DHT22;10132;50.864;5.176;2022-11-27T06:01:52;8.00;99.90
19941;DHT22;10132;50.864;5.176;2022-11-27T06:03:55;8.10;99.90
19941;DHT22;10132;50.864;5.176;2022-11-27T06:05:58;8.10;99.90
19941;DHT22;10132;50.864;5.176;2022-11-27T06:08:01;8.10;99.90
19941;DHT22;10132;50.864;5.176;2022-11-27T06:10:04;8.10;99.90
19941;DHT22;10132;50.864;5.176;2022-11-27T06:12:07;8.10;99.90
19941;DHT22;10132;50.864;5.176;2022-11-27T06:14:09;8.10;99.90
19941;DHT22;10132;50.864;5.176;2022-11-27T06:16:14;8.10;99.90
19941;DHT22;10132;50.864;5.176;2022-11-27T06:18:16;8.10;99.90
19941;DHT22;10132;50.864;5.176;2022-11-27T06:20:20;8.00;99.90
19941;DHT22;10132;50.864;5.176;2022-11-27T06:22:23;8.00;99.90
19941;DHT22;10132;50.864;5.176;2022-11-27T06:24:26;8.00;99.90
19941;DHT22;10132;50.864;5.176;2022-11-27T06:26:30;7.90;99.90
19941;DHT22;10132;50.864;5.176;2022-11-27T06:28:32;8.00;99.90
19941;DHT22;10132;50.864;5.176;2022-11-27T06:30:36;8.00;99.90
19941;DHT22;10132;50.864;5.176;2022-11-27T06:32:38;8.00;99.90
19941;DHT22;10132;50.864;5.176;2022-11-27T06:34:41;7.90;99.90
19941;DHT22;10132;50.864;5.176;2022-11-27T06:36:47;8.00;99.90
19941;DHT22;10132;50.864;5.176;2022-11-27T06:38:50;8.10;99.90
19941;DHT22;10132;50.864;5.176;2022-11-27T06:40:52;8.10;99.90
19941;DHT22;10132;50.864;5.176;2022-11-27T06:42:54;8.10;99.90
19941;DHT22;10132;50.864;5.176;2022-11-27T06:44:58;8.10;99.90
19941;DHT22;10132;50.864;5.176;2022-11-27T06:47:00;8.00;99.90
19941;DHT22;10132;50.864;5.176;2022-11-27T06:49:02;8.10;99.90
19941;DHT22;10132;50.864;5.176;2022-11-27T06:51:06;8.10;99.90
19941;DHT22;10132;50.864;5.176;2022-11-27T06:53:10;8.00;99.90
19941;DHT22;10132;50.864;5.176;2022-11-27T06:55:12;8.00;99.90
19941;DHT22;10132;50.864;5.176;2022-11-27T06:57:14;7.90;99.90
19941;DHT22;10132;50.864;5.176;2022-11-27T06:59:17;8.00;99.90
19941;DHT22;10132;50.864;5.176;2022-11-27T07:01:21;7.90;99.90
19941;DHT22;10132;50.864;5.176;2022-11-27T07:03:23;7.90;99.90
19941;DHT22;10132;50.864;5.176;2022-11-27T07:05:27;8.00;99.90
19941;DHT22;10132;50.864;5.176;2022-11-27T07:07:30;8.00;99.90
19941;DHT22;10132;50.864;5.176;2022-11-27T07:09:33;7.90;99.90
19941;DHT22;10132;50.864;5.176;2022-11-27T07:11:37;7.90;99.90
19941;DHT22;10132;50.864;5.176;2022-11-27T07:13:39;7.80;99.90
19941;DHT22;10132;50.864;5.176;2022-11-27T07:15:42;7.80;99.90
19941;DHT22;10132;50.864;5.176;2022-11-27T07:17:44;7.90;99.90
19941;DHT22;10132;50.864;5.176;2022-11-27T07:19:46;7.90;99.90
19941;DHT22;10132;50.864;5.176;2022-11-27T07:21:48;8.00;99.90
19941;DHT22;10132;50.864;5.176;2022-11-27T07:23:51;8.00;99.90
19941;DHT22;10132;50.864;5.176;2022-11-27T07:25:54;8.00;99.90
19941;DHT22;10132;50.864;5.176;2022-11-27T07:27:56;8.00;99.90
19941;DHT22;10132;50.864;5.176;2022-11-27T07:29:58;8.00;99.90
19941;DHT22;10132;50.864;5.176;2022-11-27T07:32:01;7.90;99.90
19941;DHT22;10132;50.864;5.176;2022-11-27T07:34:03;8.00;99.90
19941;DHT22;10132;50.864;5.176;2022-11-27T07:36:07;7.90;99.90
19941;DHT22;10132;50.864;5.176;2022-11-27T07:38:09;7.80;99.90
19941;DHT22;10132;50.864;5.176;2022-11-27T07:40:12;7.90;99.90
19941;DHT22;10132;50.864;5.176;2022-11-27T07:42:16;7.90;99.90
19941;DHT22;10132;50.864;5.176;2022-11-27T07:44:18;8.00;99.90
19941;DHT22;10132;50.864;5.176;2022-11-27T07:46:22;8.00;99.90
19941;DHT22;10132;50.864;5.176;2022-11-27T07:48:25;8.10;99.90
19941;DHT22;10132;50.864;5.176;2022-11-27T07:50:27;8.10;99.90
19941;DHT22;10132;50.864;5.176;2022-11-27T07:52:30;8.10;99.90
19941;DHT22;10132;50.864;5.176;2022-11-27T07:54:32;8.00;99.90
19941;DHT22;10132;50.864;5.176;2022-11-27T07:56:35;8.10;99.90
19941;DHT22;10132;50.864;5.176;2022-11-27T07:58:39;8.00;99.90
19941;DHT22;10132;50.864;5.176;2022-11-27T08:00:41;8.10;99.90
19941;DHT22;10132;50.864;5.176;2022-11-27T08:02:44;8.00;99.90
19941;DHT22;10132;50.864;5.176;2022-11-27T08:04:46;8.10;99.90
19941;DHT22;10132;50.864;5.176;2022-11-27T08:06:49;8.10;99.90
19941;DHT22;10132;50.864;5.176;2022-11-27T08:08:52;8.00;99.90
19941;DHT22;10132;50.864;5.176;2022-11-27T08:10:55;8.10;99.90
19941;DHT22;10132;50.864;5.176;2022-11-27T08:12:58;8.10;99.90
19941;DHT22;10132;50.864;5.176;2022-11-27T08:15:02;8.00;99.90
19941;DHT22;10132;50.864;5.176;2022-11-27T08:17:05;8.00;99.90
19941;DHT22;10132;50.864;5.176;2022-11-27T08:19:08;8.10;99.90
19941;DHT22;10132;50.864;5.176;2022-11-27T08:21:11;8.10;99.90
19941;DHT22;10132;50.864;5.176;2022-11-27T08:23:14;8.10;99.90
19941;DHT22;10132;50.864;5.176;2022-11-27T08:25:19;8.10;99.90
19941;DHT22;10132;50.864;5.176;2022-11-27T08:27:22;8.10;99.90
19941;DHT22;10132;50.864;5.176;2022-11-27T08:29:24;8.20;99.90
19941;DHT22;10132;50.864;5.176;2022-11-27T08:31:28;8.20;99.90
19941;DHT22;10132;50.864;5.176;2022-11-27T08:33:31;8.30;99.90
19941;DHT22;10132;50.864;5.176;2022-11-27T08:35:33;8.30;99.90
19941;DHT22;10132;50.864;5.176;2022-11-27T08:37:36;8.20;99.90
19941;DHT22;10132;50.864;5.176;2022-11-27T08:39:38;8.30;99.90
19941;DHT22;10132;50.864;5.176;2022-11-27T08:41:41;8.30;99.90
19941;DHT22;10132;50.864;5.176;2022-11-27T08:43:43;8.30;99.90
19941;DHT22;10132;50.864;5.176;2022-11-27T08:45:46;8.30;99.90
19941;DHT22;10132;50.864;5.176;2022-11-27T08:47:49;8.40;99.90
19941;DHT22;10132;50.864;5.176;2022-11-27T08:49:52;8.50;99.90
19941;DHT22;10132;50.864;5.176;2022-11-27T08:51:54;8.50;99.90
19941;DHT22;10132;50.864;5.176;2022-11-27T08:53:57;8.60;99.90
19941;DHT22;10132;50.864;5.176;2022-11-27T08:56:05;8.50;99.90
19941;DHT22;10132;50.864;5.176;2022-11-27T08:58:07;8.50;99.90
19941;DHT22;10132;50.864;5.176;2022-11-27T09:00:11;8.50;99.90
19941;DHT22;10132;50.864;5.176;2022-11-27T09:02:14;8.50;99.90
19941;DHT22;10132;50.864;5.176;2022-11-27T09:04:17;8.60;99.90
19941;DHT22;10132;50.864;5.176;2022-11-27T09:06:21;8.70;99.90
19941;DHT22;10132;50.864;5.176;2022-11-27T09:08:24;8.70;99.90
19941;DHT22;10132;50.864;5.176;2022-11-27T09:10:26;8.60;99.90
19941;DHT22;10132;50.864;5.176;2022-11-27T09:12:28;8.60;99.90
19941;DHT22;10132;50.864;5.176;2022-11-27T09:14:30;8.60;99.90
19941;DHT22;10132;50.864;5.176;2022-11-27T09:16:32;8.60;99.90
19941;DHT22;10132;50.864;5.176;2022-11-27T09:18:34;8.60;99.90
19941;DHT22;10132;50.864;5.176;2022-11-27T09:20:38;8.60;99.90
19941;DHT22;10132;50.864;5.176;2022-11-27T09:22:40;8.50;99.90
19941;DHT22;10132;50.864;5.176;2022-11-27T09:24:44;8.60;99.90
19941;DHT22;10132;50.864;5.176;2022-11-27T09:26:46;8.60;99.90
19941;DHT22;10132;50.864;5.176;2022-11-27T09:28:48;8.60;99.90
19941;DHT22;10132;50.864;5.176;2022-11-27T09:30:54;8.70;99.90
19941;DHT22;10132;50.864;5.176;2022-11-27T09:32:57;8.70;99.90
19941;DHT22;10132;50.864;5.176;2022-11-27T09:35:01;8.80;99.90
19941;DHT22;10132;50.864;5.176;2022-11-27T09:37:05;8.90;99.90
19941;DHT22;10132;50.864;5.176;2022-11-27T09:39:08;9.00;99.90
19941;DHT22;10132;50.864;5.176;2022-11-27T09:41:38;9.00;99.90
19941;DHT22;10132;50.864;5.176;2022-11-27T09:43:47;9.00;99.90
19941;DHT22;10132;50.864;5.176;2022-11-27T09:45:51;9.00;99.90
19941;DHT22;10132;50.864;5.176;2022-11-27T09:47:58;8.90;99.90
19941;DHT22;10132;50.864;5.176;2022-11-27T09:50:05;8.90;99.90
19941;DHT22;10132;50.864;5.176;2022-11-27T09:52:19;9.00;99.90
19941;DHT22;10132;50.864;5.176;2022-11-27T09:54:27;9.00;99.90
19941;DHT22;10132;50.864;5.176;2022-11-27T09:56:33;9.00;99.90
19941;DHT22;10132;50.864;5.176;2022-11-27T09:58:40;8.90;99.90
19941;DHT22;10132;50.864;5.176;2022-11-27T10:00:42;8.70;99.90
19941;DHT22;10132;50.864;5.176;2022-11-27T10:02:45;8.70;99.90
19941;DHT22;10132;50.864;5.176;2022-11-27T10:04:47;8.60;99.90
19941;DHT22;10132;50.864;5.176;2022-11-27T10:07:04;8.60;99.90
19941;DHT22;10132;50.864;5.176;2022-11-27T10:09:18;8.60;99.90
19941;DHT22;10132;50.864;5.176;2022-11-27T10:11:29;8.70;99.90
19941;DHT22;10132;50.864;5.176;2022-11-27T10:13:46;8.70;99.90
19941;DHT22;10132;50.864;5.176;2022-11-27T10:15:55;8.60;99.90
19941;DHT22;10132;50.864;5.176;2022-11-27T10:18:02;8.70;99.90
19941;DHT22;10132;50.864;5.176;2022-11-27T10:20:22;8.80;99.90
19941;DHT22;10132;50.864;5.176;2022-11-27T10:22:39;8.70;99.90
19941;DHT22;10132;50.864;5.176;2022-11-27T10:24:51;8.80;99.90
19941;DHT22;10132;50.864;5.176;2022-11-27T10:26:58;8.70;99.90
19941;DHT22;10132;50.864;5.176;2022-11-27T10:29:03;8.90;99.90
19941;DHT22;10132;50.864;5.176;2022-11-27T10:31:13;8.90;99.90
19941;DHT22;10132;50.864;5.176;2022-11-27T10:33:23;9.00;99.90
19941;DHT22;10132;50.864;5.176;2022-11-27T10:35:28;8.90;99.90
19941;DHT22;10132;50.864;5.176;2022-11-27T10:37:37;8.90;99.90
19941;DHT22;10132;50.864;5.176;2022-11-27T10:39:44;8.90;99.90
19941;DHT22;10132;50.864;5.176;2022-11-27T10:41:52;8.90;99.90
19941;DHT22;10132;50.864;5.176;2022-11-27T10:43:57;8.90;99.90
19941;DHT22;10132;50.864;5.176;2022-11-27T10:46:04;9.00;99.90
19941;DHT22;10132;50.864;5.176;2022-11-27T10:48:10;9.10;99.90
19941;DHT22;10132;50.864;5.176;2022-11-27T10:50:13;9.10;99.90
19941;DHT22;10132;50.864;5.176;2022-11-27T10:52:17;9.20;99.90
19941;DHT22;10132;50.864;5.176;2022-11-27T10:54:24;9.30;99.90
19941;DHT22;10132;50.864;5.176;2022-11-27T10:56:57;9.30;99.90
19941;DHT22;10132;50.864;5.176;2022-11-27T10:59:07;9.40;99.90
19941;DHT22;10132;50.864;5.176;2022-11-27T11:01:12;9.30;99.90
19941;DHT22;10132;50.864;5.176;2022-11-27T11:03:16;9.30;99.90
19941;DHT22;10132;50.864;5.176;2022-11-27T11:05:21;9.30;99.90
19941;DHT22;10132;50.864;5.176;2022-11-27T11:07:25;9.40;99.90
19941;DHT22;10132;50.864;5.176;2022-11-27T11:09:31;9.50;99.90
19941;DHT22;10132;50.864;5.176;2022-11-27T11:11:34;9.60;99.90
19941;DHT22;10132;50.864;5.176;2022-11-27T11:13:44;9.60;99.90
19941;DHT22;10132;50.864;5.176;2022-11-27T11:15:53;9.60;99.90
19941;DHT22;10132;50.864;5.176;2022-11-27T11:17:56;9.60;99.90
19941;DHT22;10132;50.864;5.176;2022-11-27T11:19:59;9.60;99.90
19941;DHT22;10132;50.864;5.176;2022-11-27T11:22:04;9.60;99.90
19941;DHT22;10132;50.864;5.176;2022-11-27T11:24:23;9.60;99.90
19941;DHT22;10132;50.864;5.176;2022-11-27T11:26:28;9.70;99.90
19941;DHT22;10132;50.864;5.176;2022-11-27T11:28:34;9.60;99.90
19941;DHT22;10132;50.864;5.176;2022-11-27T11:30:42;9.40;99.90
19941;DHT22;10132;50.864;5.176;2022-11-27T11:32:58;9.50;99.90
19941;DHT22;10132;50.864;5.176;2022-11-27T11:35:07;9.50;99.90
19941;DHT22;10132;50.864;5.176;2022-11-27T11:37:20;9.50;99.90
19941;DHT22;10132;50.864;5.176;2022-11-27T11:39:25;9.60;99.90
19941;DHT22;10132;50.864;5.176;2022-11-27T11:41:35;9.60;99.90
19941;DHT22;10132;50.864;5.176;2022-11-27T11:43:38;9.60;99.90
19941;DHT22;10132;50.864;5.176;2022-11-27T11:45:46;9.70;99.90
19941;DHT22;10132;50.864;5.176;2022-11-27T11:47:50;9.80;99.90
19941;DHT22;10132;50.864;5.176;2022-11-27T11:49:53;9.90;99.90
19941;DHT22;10132;50.864;5.176;2022-11-27T11:52:13;9.90;99.90
19941;DHT22;10132;50.864;5.176;2022-11-27T11:54:41;9.80;99.90
19941;DHT22;10132;50.864;5.176;2022-11-27T11:56:49;9.70;99.90
19941;DHT22;10132;50.864;5.176;2022-11-27T11:58:55;9.70;99.90
19941;DHT22;10132;50.864;5.176;2022-11-27T12:01:16;9.70;99.90
19941;DHT22;10132;50.864;5.176;2022-11-27T12:03:30;9.80;99.90
19941;DHT22;10132;50.864;5.176;2022-11-27T12:05:39;9.80;99.90
19941;DHT22;10132;50.864;5.176;2022-11-27T12:08:02;9.80;99.90
19941;DHT22;10132;50.864;5.176;2022-11-27T12:10:13;9.70;99.90
19941;DHT22;10132;50.864;5.176;2022-11-27T12:12:28;9.80;99.90
19941;DHT22;10132;50.864;5.176;2022-11-27T12:14:42;9.80;99.90
19941;DHT22;10132;50.864;5.176;2022-11-27T12:16:56;9.80;99.90
19941;DHT22;10132;50.864;5.176;2022-11-27T12:19:24;9.60;99.90
19941;DHT22;10132;50.864;5.176;2022-11-27T12:21:40;9.60;99.90
19941;DHT22;10132;50.864;5.176;2022-11-27T12:23:58;9.60;99.90
19941;DHT22;10132;50.864;5.176;2022-11-27T12:26:13;9.50;99.90
19941;DHT22;10132;50.864;5.176;2022-11-27T12:28:33;9.50;99.90
19941;DHT22;10132;50.864;5.176;2022-11-27T12:30:45;9.50;99.90
19941;DHT22;10132;50.864;5.176;2022-11-27T12:33:13;9.50;99.90
19941;DHT22;10132;50.864;5.176;2022-11-27T12:35:32;9.60;99.90
19941;DHT22;10132;50.864;5.176;2022-11-27T12:37:44;9.40;99.90
19941;DHT22;10132;50.864;5.176;2022-11-27T12:40:02;9.40;99.90
19941;DHT22;10132;50.864;5.176;2022-11-27T12:42:14;9.40;99.90
19941;DHT22;10132;50.864;5.176;2022-11-27T12:44:24;9.40;99.90
19941;DHT22;10132;50.864;5.176;2022-11-27T12:46:32;9.40;99.90
19941;DHT22;10132;50.864;5.176;2022-11-27T12:48:41;9.40;99.90
19941;DHT22;10132;50.864;5.176;2022-11-27T12:50:47;9.30;99.90
19941;DHT22;10132;50.864;5.176;2022-11-27T12:52:57;9.30;99.90
19941;DHT22;10132;50.864;5.176;2022-11-27T12:55:04;9.20;99.90
19941;DHT22;10132;50.864;5.176;2022-11-27T12:57:14;9.10;99.90
19941;DHT22;10132;50.864;5.176;2022-11-27T12:59:20;9.10;99.90
19941;DHT22;10132;50.864;5.176;2022-11-27T13:01:27;9.10;99.90
19941;DHT22;10132;50.864;5.176;2022-11-27T13:03:35;9.10;99.90
19941;DHT22;10132;50.864;5.176;2022-11-27T13:05:45;9.10;99.90
19941;DHT22;10132;50.864;5.176;2022-11-27T13:07:51;9.20;99.90
19941;DHT22;10132;50.864;5.176;2022-11-27T13:10:02;9.10;99.90
19941;DHT22;10132;50.864;5.176;2022-11-27T13:12:06;9.20;99.90
19941;DHT22;10132;50.864;5.176;2022-11-27T13:14:11;9.20;99.90
19941;DHT22;10132;50.864;5.176;2022-11-27T13:16:23;9.10;99.90
19941;DHT22;10132;50.864;5.176;2022-11-27T13:18:32;9.10;99.90
19941;DHT22;10132;50.864;5.176;2022-11-27T13:20:37;9.10;99.90
19941;DHT22;10132;50.864;5.176;2022-11-27T13:22:42;9.20;99.90
19941;DHT22;10132;50.864;5.176;2022-11-27T13:24:44;9.20;99.90